Minot, ND

2:33 PM CST on November 24, 2014 (GMT -0600)
Minot International | Change Station
CLOSE
Current Station
Airport
Location: Minot,
Elevation: 1716 ft
Nearby Weather Stations

Elev 1716 ft 48.26 °N, 101.28 °W | Updated 39 minutes ago

Clear
Clear
19 °F
Feels Like 9 °F
N
9
Wind Variable Wind from West

Today
High -- | Low -- °F
--% Chance of Precip.
Yesterday
High -- | Low -- °F
Precip. -- in
8:05 AM 4:57 PM
Waxing Crescent, 7% visible
Pressure 29.94 in
Visibility 10.0 miles
Clouds Clear
Windchill 9 °F
Dew Point 1 °F
Humidity 46%
Rainfall 0.00 in
Snow Depth Not available.
UV 1 out of 12
Pollen .10 out of 12
Air Quality Not available.
Flu Activity Not available.
METAR KMOT 241954Z 28008KT 10SM CLR M07/M17 A2994

More Conditions Fewer Conditions

Pressure 29.94 in
Visibility 10.0 miles
Clouds Clear
Windchill 9 °F
Dew Point 1 °F
Humidity 46%
Rainfall 0.00 in
Snow Depth Not available.
UV 1 out of 12
Pollen .10 out of 12
Air Quality Not available.
Flu Activity Not available.
METAR KMOT 241954Z 28008KT 10SM CLR M07/M17 A2994

More Conditions Fewer Conditions

10-Day Weather Forecast

Almanac

Astronomy

Nov. 24, 2014 Rise Set
Actual Time
Civil Twilight
Nautical Twilight
Astronomical Twilight
Moon
Length of Visible Light
Length of Day
Tomorrow will be .
, % of the Moon is Illuminated

Today's Extremes

State Highs State Lows

Community

WunderPhotos

Upload Photos

1,773,406 photos uploaded!

WunderBlogs® & News

Nearby

Air Quality

  Air Quality AQ Index Pollutant
Not available.

Snow Depth

Station Depth Elevation

Earthquake Activity

City Distance Mag. Time & Date
Minimum magnitude displayed is 2.5.

Coastal Water Temperatures

Place Temperature

Nearby Weather Stations